sensor_id;sensor_type;location;lat;lon;timestamp;P1;durP1;ratioP1;P2;durP2;ratioP2
25409;SDS011;13339;50.840;4.346;2022-07-06T00:01:17;6.13;;;2.60;;
25409;SDS011;13339;50.840;4.346;2022-07-06T00:03:44;5.33;;;3.00;;
25409;SDS011;13339;50.840;4.346;2022-07-06T00:06:09;7.67;;;2.87;;
25409;SDS011;13339;50.840;4.346;2022-07-06T00:08:35;8.73;;;2.90;;
25409;SDS011;13339;50.840;4.346;2022-07-06T00:11:01;7.87;;;3.03;;
25409;SDS011;13339;50.840;4.346;2022-07-06T00:13:26;6.33;;;3.03;;
25409;SDS011;13339;50.840;4.346;2022-07-06T00:15:52;7.77;;;3.23;;
25409;SDS011;13339;50.840;4.346;2022-07-06T00:18:18;6.87;;;2.77;;
25409;SDS011;13339;50.840;4.346;2022-07-06T00:20:44;9.10;;;3.20;;
25409;SDS011;13339;50.840;4.346;2022-07-06T00:23:09;6.13;;;3.17;;
25409;SDS011;13339;50.840;4.346;2022-07-06T00:25:35;5.70;;;3.07;;
25409;SDS011;13339;50.840;4.346;2022-07-06T00:28:01;8.20;;;3.73;;
25409;SDS011;13339;50.840;4.346;2022-07-06T00:30:27;5.93;;;3.20;;
25409;SDS011;13339;50.840;4.346;2022-07-06T00:32:53;7.40;;;3.00;;
25409;SDS011;13339;50.840;4.346;2022-07-06T00:35:18;11.77;;;3.67;;
25409;SDS011;13339;50.840;4.346;2022-07-06T00:37:44;9.50;;;3.50;;
25409;SDS011;13339;50.840;4.346;2022-07-06T00:40:10;8.53;;;3.70;;
25409;SDS011;13339;50.840;4.346;2022-07-06T00:42:47;6.97;;;3.57;;
25409;SDS011;13339;50.840;4.346;2022-07-06T00:45:13;5.43;;;2.93;;
25409;SDS011;13339;50.840;4.346;2022-07-06T00:47:40;5.37;;;3.37;;
25409;SDS011;13339;50.840;4.346;2022-07-06T00:50:07;5.57;;;3.23;;
25409;SDS011;13339;50.840;4.346;2022-07-06T00:52:40;9.40;;;3.57;;
25409;SDS011;13339;50.840;4.346;2022-07-06T00:55:07;6.97;;;4.00;;
25409;SDS011;13339;50.840;4.346;2022-07-06T00:57:34;8.60;;;3.80;;
25409;SDS011;13339;50.840;4.346;2022-07-06T01:00:02;9.37;;;3.90;;
25409;SDS011;13339;50.840;4.346;2022-07-06T01:02:31;13.00;;;4.27;;
25409;SDS011;13339;50.840;4.346;2022-07-06T01:04:58;5.23;;;4.07;;
25409;SDS011;13339;50.840;4.346;2022-07-06T01:07:24;10.10;;;3.97;;
25409;SDS011;13339;50.840;4.346;2022-07-06T01:09:50;8.93;;;3.90;;
25409;SDS011;13339;50.840;4.346;2022-07-06T01:12:15;8.10;;;4.17;;
25409;SDS011;13339;50.840;4.346;2022-07-06T01:14:41;8.90;;;4.10;;
25409;SDS011;13339;50.840;4.346;2022-07-06T01:17:07;9.40;;;4.13;;
25409;SDS011;13339;50.840;4.346;2022-07-06T01:19:33;7.60;;;4.07;;
25409;SDS011;13339;50.840;4.346;2022-07-06T01:21:59;9.43;;;4.80;;
25409;SDS011;13339;50.840;4.346;2022-07-06T01:24:25;11.43;;;4.80;;
25409;SDS011;13339;50.840;4.346;2022-07-06T01:26:51;8.87;;;4.83;;
25409;SDS011;13339;50.840;4.346;2022-07-06T01:29:17;15.60;;;4.67;;
25409;SDS011;13339;50.840;4.346;2022-07-06T01:31:46;8.43;;;4.93;;
25409;SDS011;13339;50.840;4.346;2022-07-06T01:34:14;12.30;;;4.43;;
25409;SDS011;13339;50.840;4.346;2022-07-06T01:36:40;12.67;;;4.60;;
25409;SDS011;13339;50.840;4.346;2022-07-06T01:39:07;10.97;;;4.40;;
25409;SDS011;13339;50.840;4.346;2022-07-06T01:41:33;14.03;;;5.03;;
25409;SDS011;13339;50.840;4.346;2022-07-06T01:43:59;12.27;;;4.20;;
25409;SDS011;13339;50.840;4.346;2022-07-06T01:46:25;6.10;;;4.13;;
25409;SDS011;13339;50.840;4.346;2022-07-06T01:48:51;10.53;;;4.53;;
25409;SDS011;13339;50.840;4.346;2022-07-06T01:51:16;9.70;;;4.57;;
25409;SDS011;13339;50.840;4.346;2022-07-06T01:53:42;9.27;;;4.37;;
25409;SDS011;13339;50.840;4.346;2022-07-06T01:56:08;14.67;;;4.83;;
25409;SDS011;13339;50.840;4.346;2022-07-06T01:58:34;14.23;;;4.93;;
25409;SDS011;13339;50.840;4.346;2022-07-06T02:01:00;10.53;;;4.27;;
25409;SDS011;13339;50.840;4.346;2022-07-06T02:03:26;8.50;;;5.13;;
25409;SDS011;13339;50.840;4.346;2022-07-06T02:05:51;11.37;;;4.20;;
25409;SDS011;13339;50.840;4.346;2022-07-06T02:08:17;13.80;;;4.73;;
25409;SDS011;13339;50.840;4.346;2022-07-06T02:10:43;11.33;;;4.40;;
25409;SDS011;13339;50.840;4.346;2022-07-06T02:13:08;10.20;;;4.30;;
25409;SDS011;13339;50.840;4.346;2022-07-06T02:15:34;9.77;;;4.90;;
25409;SDS011;13339;50.840;4.346;2022-07-06T02:18:00;11.17;;;4.50;;
25409;SDS011;13339;50.840;4.346;2022-07-06T02:20:25;11.07;;;4.33;;
25409;SDS011;13339;50.840;4.346;2022-07-06T02:22:51;9.53;;;4.37;;
25409;SDS011;13339;50.840;4.346;2022-07-06T02:25:16;11.80;;;4.50;;
25409;SDS011;13339;50.840;4.346;2022-07-06T02:27:42;8.63;;;4.07;;
25409;SDS011;13339;50.840;4.346;2022-07-06T02:30:08;12.57;;;4.57;;
25409;SDS011;13339;50.840;4.346;2022-07-06T02:32:33;11.23;;;4.40;;
25409;SDS011;13339;50.840;4.346;2022-07-06T02:34:59;6.87;;;4.17;;
25409;SDS011;13339;50.840;4.346;2022-07-06T02:37:25;10.13;;;5.00;;
25409;SDS011;13339;50.840;4.346;2022-07-06T02:39:50;10.03;;;4.40;;
25409;SDS011;13339;50.840;4.346;2022-07-06T02:42:16;10.77;;;4.67;;
25409;SDS011;13339;50.840;4.346;2022-07-06T02:44:41;10.43;;;5.30;;
25409;SDS011;13339;50.840;4.346;2022-07-06T02:47:07;7.93;;;5.07;;
25409;SDS011;13339;50.840;4.346;2022-07-06T02:49:33;8.17;;;4.70;;
25409;SDS011;13339;50.840;4.346;2022-07-06T02:51:58;12.17;;;5.20;;
25409;SDS011;13339;50.840;4.346;2022-07-06T02:54:24;8.03;;;4.67;;
25409;SDS011;13339;50.840;4.346;2022-07-06T02:56:49;12.47;;;5.30;;
25409;SDS011;13339;50.840;4.346;2022-07-06T02:59:18;13.63;;;5.20;;
25409;SDS011;13339;50.840;4.346;2022-07-06T03:01:46;9.47;;;5.33;;
25409;SDS011;13339;50.840;4.346;2022-07-06T03:04:12;9.80;;;5.67;;
25409;SDS011;13339;50.840;4.346;2022-07-06T03:06:37;12.23;;;5.23;;
25409;SDS011;13339;50.840;4.346;2022-07-06T03:09:03;7.67;;;5.17;;
25409;SDS011;13339;50.840;4.346;2022-07-06T03:11:29;9.93;;;5.17;;
25409;SDS011;13339;50.840;4.346;2022-07-06T03:13:54;8.67;;;5.23;;
25409;SDS011;13339;50.840;4.346;2022-07-06T03:16:20;11.20;;;5.30;;
25409;SDS011;13339;50.840;4.346;2022-07-06T03:18:46;9.90;;;5.13;;
25409;SDS011;13339;50.840;4.346;2022-07-06T03:21:11;12.50;;;4.90;;
25409;SDS011;13339;50.840;4.346;2022-07-06T03:23:37;10.77;;;4.83;;
25409;SDS011;13339;50.840;4.346;2022-07-06T03:26:02;8.37;;;4.73;;
25409;SDS011;13339;50.840;4.346;2022-07-06T03:28:28;6.30;;;4.87;;
25409;SDS011;13339;50.840;4.346;2022-07-06T03:30:54;7.13;;;4.90;;
25409;SDS011;13339;50.840;4.346;2022-07-06T03:33:19;10.27;;;5.23;;
25409;SDS011;13339;50.840;4.346;2022-07-06T03:35:45;7.00;;;5.13;;
25409;SDS011;13339;50.840;4.346;2022-07-06T03:38:11;11.57;;;5.10;;
25409;SDS011;13339;50.840;4.346;2022-07-06T03:40:36;10.03;;;5.10;;
25409;SDS011;13339;50.840;4.346;2022-07-06T03:43:02;6.90;;;4.87;;
25409;SDS011;13339;50.840;4.346;2022-07-06T03:45:27;15.10;;;5.40;;
25409;SDS011;13339;50.840;4.346;2022-07-06T03:47:53;10.47;;;4.93;;
25409;SDS011;13339;50.840;4.346;2022-07-06T03:50:19;9.93;;;5.20;;
25409;SDS011;13339;50.840;4.346;2022-07-06T03:52:44;10.30;;;6.27;;
25409;SDS011;13339;50.840;4.346;2022-07-06T03:55:10;9.97;;;5.10;;
25409;SDS011;13339;50.840;4.346;2022-07-06T03:57:37;7.90;;;5.13;;
25409;SDS011;13339;50.840;4.346;2022-07-06T04:00:04;10.30;;;5.43;;
25409;SDS011;13339;50.840;4.346;2022-07-06T04:02:30;11.30;;;5.37;;
25409;SDS011;13339;50.840;4.346;2022-07-06T04:04:56;11.03;;;5.87;;
25409;SDS011;13339;50.840;4.346;2022-07-06T04:07:22;13.80;;;5.70;;
25409;SDS011;13339;50.840;4.346;2022-07-06T04:09:48;20.87;;;6.23;;
25409;SDS011;13339;50.840;4.346;2022-07-06T04:12:13;10.37;;;5.40;;
25409;SDS011;13339;50.840;4.346;2022-07-06T04:14:39;8.30;;;5.30;;
25409;SDS011;13339;50.840;4.346;2022-07-06T04:17:04;12.40;;;5.30;;
25409;SDS011;13339;50.840;4.346;2022-07-06T04:19:48;8.70;;;5.63;;
25409;SDS011;13339;50.840;4.346;2022-07-06T04:22:14;13.20;;;5.70;;
25409;SDS011;13339;50.840;4.346;2022-07-06T04:24:40;13.93;;;5.93;;
25409;SDS011;13339;50.840;4.346;2022-07-06T04:27:06;13.97;;;5.87;;
25409;SDS011;13339;50.840;4.346;2022-07-06T04:29:32;10.37;;;5.60;;
25409;SDS011;13339;50.840;4.346;2022-07-06T04:31:57;8.70;;;5.50;;
25409;SDS011;13339;50.840;4.346;2022-07-06T04:34:23;9.90;;;5.17;;
25409;SDS011;13339;50.840;4.346;2022-07-06T04:36:48;18.87;;;5.87;;
25409;SDS011;13339;50.840;4.346;2022-07-06T04:39:14;13.27;;;6.23;;
25409;SDS011;13339;50.840;4.346;2022-07-06T04:41:39;12.67;;;5.70;;
25409;SDS011;13339;50.840;4.346;2022-07-06T04:44:05;12.20;;;6.20;;
25409;SDS011;13339;50.840;4.346;2022-07-06T04:46:30;9.53;;;6.20;;
25409;SDS011;13339;50.840;4.346;2022-07-06T04:48:56;11.10;;;5.73;;
25409;SDS011;13339;50.840;4.346;2022-07-06T04:51:22;14.50;;;6.30;;
25409;SDS011;13339;50.840;4.346;2022-07-06T04:53:47;11.57;;;5.57;;
25409;SDS011;13339;50.840;4.346;2022-07-06T04:56:13;11.60;;;5.53;;
25409;SDS011;13339;50.840;4.346;2022-07-06T04:58:38;10.50;;;6.00;;
25409;SDS011;13339;50.840;4.346;2022-07-06T05:01:04;15.27;;;6.57;;
25409;SDS011;13339;50.840;4.346;2022-07-06T05:03:30;13.03;;;6.67;;
25409;SDS011;13339;50.840;4.346;2022-07-06T05:05:56;10.07;;;6.83;;
25409;SDS011;13339;50.840;4.346;2022-07-06T05:08:21;13.70;;;6.50;;
25409;SDS011;13339;50.840;4.346;2022-07-06T05:10:50;12.17;;;6.37;;
25409;SDS011;13339;50.840;4.346;2022-07-06T05:13:16;13.83;;;6.27;;
25409;SDS011;13339;50.840;4.346;2022-07-06T05:15:42;15.43;;;7.17;;
25409;SDS011;13339;50.840;4.346;2022-07-06T05:18:09;15.10;;;7.17;;
25409;SDS011;13339;50.840;4.346;2022-07-06T05:20:34;15.80;;;6.73;;
25409;SDS011;13339;50.840;4.346;2022-07-06T05:23:00;20.10;;;7.43;;
25409;SDS011;13339;50.840;4.346;2022-07-06T05:25:25;12.70;;;7.33;;
25409;SDS011;13339;50.840;4.346;2022-07-06T05:27:51;14.57;;;6.67;;
25409;SDS011;13339;50.840;4.346;2022-07-06T05:30:17;15.83;;;7.43;;
25409;SDS011;13339;50.840;4.346;2022-07-06T05:32:42;13.40;;;7.23;;
25409;SDS011;13339;50.840;4.346;2022-07-06T05:35:08;13.63;;;7.57;;
25409;SDS011;13339;50.840;4.346;2022-07-06T05:37:34;15.93;;;6.97;;
25409;SDS011;13339;50.840;4.346;2022-07-06T05:39:59;13.80;;;6.63;;
25409;SDS011;13339;50.840;4.346;2022-07-06T05:42:25;13.50;;;6.97;;
25409;SDS011;13339;50.840;4.346;2022-07-06T05:44:54;11.57;;;7.27;;
25409;SDS011;13339;50.840;4.346;2022-07-06T05:47:20;14.17;;;6.47;;
25409;SDS011;13339;50.840;4.346;2022-07-06T05:50:04;16.47;;;7.33;;
25409;SDS011;13339;50.840;4.346;2022-07-06T05:52:43;14.80;;;7.30;;
25409;SDS011;13339;50.840;4.346;2022-07-06T05:55:11;16.50;;;7.90;;
25409;SDS011;13339;50.840;4.346;2022-07-06T05:57:37;21.20;;;7.53;;
25409;SDS011;13339;50.840;4.346;2022-07-06T06:00:05;23.83;;;8.70;;
25409;SDS011;13339;50.840;4.346;2022-07-06T06:02:36;17.60;;;7.33;;
25409;SDS011;13339;50.840;4.346;2022-07-06T06:05:03;16.30;;;7.37;;
25409;SDS011;13339;50.840;4.346;2022-07-06T06:07:30;17.17;;;7.43;;
25409;SDS011;13339;50.840;4.346;2022-07-06T06:09:55;15.43;;;7.63;;
25409;SDS011;13339;50.840;4.346;2022-07-06T06:12:21;20.17;;;7.67;;
25409;SDS011;13339;50.840;4.346;2022-07-06T06:14:46;26.37;;;7.30;;
25409;SDS011;13339;50.840;4.346;2022-07-06T06:17:12;23.37;;;7.70;;
25409;SDS011;13339;50.840;4.346;2022-07-06T06:19:37;19.00;;;7.80;;
25409;SDS011;13339;50.840;4.346;2022-07-06T06:22:03;22.60;;;7.33;;
25409;SDS011;13339;50.840;4.346;2022-07-06T06:24:29;21.47;;;8.73;;
25409;SDS011;13339;50.840;4.346;2022-07-06T06:26:54;30.87;;;9.80;;
25409;SDS011;13339;50.840;4.346;2022-07-06T06:29:20;18.50;;;6.97;;
25409;SDS011;13339;50.840;4.346;2022-07-06T06:31:45;20.37;;;6.63;;
25409;SDS011;13339;50.840;4.346;2022-07-06T06:34:11;20.30;;;6.60;;
25409;SDS011;13339;50.840;4.346;2022-07-06T06:36:37;26.10;;;7.50;;
25409;SDS011;13339;50.840;4.346;2022-07-06T06:39:02;21.40;;;6.40;;
25409;SDS011;13339;50.840;4.346;2022-07-06T06:41:28;19.37;;;7.37;;
25409;SDS011;13339;50.840;4.346;2022-07-06T06:43:53;19.80;;;7.07;;
25409;SDS011;13339;50.840;4.346;2022-07-06T06:46:19;20.73;;;7.07;;
25409;SDS011;13339;50.840;4.346;2022-07-06T06:48:45;14.53;;;6.33;;
25409;SDS011;13339;50.840;4.346;2022-07-06T06:51:10;22.70;;;6.77;;
25409;SDS011;13339;50.840;4.346;2022-07-06T06:53:36;26.47;;;6.93;;
25409;SDS011;13339;50.840;4.346;2022-07-06T06:56:01;27.03;;;6.67;;
25409;SDS011;13339;50.840;4.346;2022-07-06T06:58:27;12.40;;;5.50;;
25409;SDS011;13339;50.840;4.346;2022-07-06T07:00:53;19.30;;;5.60;;
25409;SDS011;13339;50.840;4.346;2022-07-06T07:03:18;15.47;;;5.10;;
25409;SDS011;13339;50.840;4.346;2022-07-06T07:05:44;12.70;;;5.33;;
25409;SDS011;13339;50.840;4.346;2022-07-06T07:08:10;14.93;;;4.60;;
25409;SDS011;13339;50.840;4.346;2022-07-06T07:10:35;19.03;;;5.20;;
25409;SDS011;13339;50.840;4.346;2022-07-06T07:13:01;15.63;;;4.07;;
25409;SDS011;13339;50.840;4.346;2022-07-06T07:15:27;11.93;;;4.87;;
25409;SDS011;13339;50.840;4.346;2022-07-06T07:17:53;13.17;;;3.43;;
25409;SDS011;13339;50.840;4.346;2022-07-06T07:20:18;12.07;;;4.53;;
25409;SDS011;13339;50.840;4.346;2022-07-06T07:22:44;9.37;;;3.43;;
25409;SDS011;13339;50.840;4.346;2022-07-06T07:25:09;9.90;;;3.80;;
25409;SDS011;13339;50.840;4.346;2022-07-06T07:27:35;12.47;;;4.57;;
25409;SDS011;13339;50.840;4.346;2022-07-06T07:30:01;8.87;;;4.50;;
25409;SDS011;13339;50.840;4.346;2022-07-06T07:32:26;14.47;;;4.10;;
25409;SDS011;13339;50.840;4.346;2022-07-06T07:34:52;5.83;;;2.37;;
25409;SDS011;13339;50.840;4.346;2022-07-06T07:37:18;14.83;;;4.60;;
25409;SDS011;13339;50.840;4.346;2022-07-06T07:39:43;4.20;;;2.13;;
25409;SDS011;13339;50.840;4.346;2022-07-06T07:42:09;5.50;;;2.90;;
25409;SDS011;13339;50.840;4.346;2022-07-06T07:44:34;11.03;;;3.53;;
25409;SDS011;13339;50.840;4.346;2022-07-06T07:47:00;8.90;;;2.93;;
25409;SDS011;13339;50.840;4.346;2022-07-06T07:49:26;15.03;;;4.57;;
25409;SDS011;13339;50.840;4.346;2022-07-06T07:51:51;6.40;;;2.70;;
25409;SDS011;13339;50.840;4.346;2022-07-06T07:54:17;7.43;;;2.70;;
25409;SDS011;13339;50.840;4.346;2022-07-06T07:56:42;7.20;;;3.30;;
25409;SDS011;13339;50.840;4.346;2022-07-06T07:59:08;8.27;;;3.33;;
25409;SDS011;13339;50.840;4.346;2022-07-06T08:01:34;7.63;;;3.10;;
25409;SDS011;13339;50.840;4.346;2022-07-06T08:04:00;5.17;;;3.10;;
25409;SDS011;13339;50.840;4.346;2022-07-06T08:06:25;11.63;;;2.50;;
25409;SDS011;13339;50.840;4.346;2022-07-06T08:08:51;9.00;;;3.20;;
25409;SDS011;13339;50.840;4.346;2022-07-06T08:11:17;11.25;;;3.08;;
25409;SDS011;13339;50.840;4.346;2022-07-06T08:13:42;15.32;;;3.38;;
25409;SDS011;13339;50.840;4.346;2022-07-06T08:16:08;9.00;;;2.67;;
25409;SDS011;13339;50.840;4.346;2022-07-06T08:18:35;11.95;;;3.22;;
25409;SDS011;13339;50.840;4.346;2022-07-06T08:21:01;10.77;;;2.63;;
25409;SDS011;13339;50.840;4.346;2022-07-06T08:23:27;18.42;;;3.65;;
25409;SDS011;13339;50.840;4.346;2022-07-06T08:25:53;18.52;;;3.67;;
25409;SDS011;13339;50.840;4.346;2022-07-06T08:28:19;5.03;;;2.90;;
25409;SDS011;13339;50.840;4.346;2022-07-06T08:30:44;8.43;;;2.75;;
25409;SDS011;13339;50.840;4.346;2022-07-06T08:33:10;6.45;;;3.30;;
25409;SDS011;13339;50.840;4.346;2022-07-06T08:35:35;20.70;;;3.85;;
25409;SDS011;13339;50.840;4.346;2022-07-06T08:38:01;4.82;;;2.90;;
25409;SDS011;13339;50.840;4.346;2022-07-06T08:40:31;8.65;;;3.85;;
25409;SDS011;13339;50.840;4.346;2022-07-06T08:42:59;7.37;;;3.57;;
25409;SDS011;13339;50.840;4.346;2022-07-06T08:45:25;8.93;;;3.43;;
25409;SDS011;13339;50.840;4.346;2022-07-06T08:47:52;9.57;;;3.70;;
25409;SDS011;13339;50.840;4.346;2022-07-06T08:50:20;7.90;;;3.50;;
25409;SDS011;13339;50.840;4.346;2022-07-06T08:52:47;9.03;;;4.60;;
25409;SDS011;13339;50.840;4.346;2022-07-06T08:55:14;5.83;;;4.00;;
25409;SDS011;13339;50.840;4.346;2022-07-06T08:57:40;9.60;;;4.33;;
25409;SDS011;13339;50.840;4.346;2022-07-06T09:00:09;11.43;;;4.73;;
25409;SDS011;13339;50.840;4.346;2022-07-06T09:02:35;16.90;;;4.07;;
25409;SDS011;13339;50.840;4.346;2022-07-06T09:05:02;12.00;;;4.00;;
25409;SDS011;13339;50.840;4.346;2022-07-06T09:07:28;5.80;;;3.63;;
25409;SDS011;13339;50.840;4.346;2022-07-06T09:09:55;7.33;;;3.57;;
25409;SDS011;13339;50.840;4.346;2022-07-06T09:12:21;7.70;;;3.20;;
25409;SDS011;13339;50.840;4.346;2022-07-06T09:14:47;7.33;;;3.40;;
25409;SDS011;13339;50.840;4.346;2022-07-06T09:17:13;8.17;;;3.83;;
25409;SDS011;13339;50.840;4.346;2022-07-06T09:19:38;8.17;;;3.87;;
25409;SDS011;13339;50.840;4.346;2022-07-06T09:22:04;10.33;;;3.53;;
25409;SDS011;13339;50.840;4.346;2022-07-06T09:24:30;7.13;;;3.27;;
25409;SDS011;13339;50.840;4.346;2022-07-06T09:26:57;7.90;;;3.57;;
25409;SDS011;13339;50.840;4.346;2022-07-06T09:29:27;11.77;;;3.67;;
25409;SDS011;13339;50.840;4.346;2022-07-06T09:31:58;6.50;;;3.50;;
25409;SDS011;13339;50.840;4.346;2022-07-06T09:34:24;14.37;;;3.63;;
25409;SDS011;13339;50.840;4.346;2022-07-06T09:36:51;4.70;;;3.10;;
25409;SDS011;13339;50.840;4.346;2022-07-06T09:39:24;5.47;;;3.50;;
25409;SDS011;13339;50.840;4.346;2022-07-06T09:41:52;8.93;;;3.63;;
25409;SDS011;13339;50.840;4.346;2022-07-06T09:44:37;6.17;;;3.30;;
25409;SDS011;13339;50.840;4.346;2022-07-06T09:47:08;6.27;;;3.63;;
25409;SDS011;13339;50.840;4.346;2022-07-06T09:49:35;6.33;;;2.97;;
25409;SDS011;13339;50.840;4.346;2022-07-06T09:52:03;7.77;;;3.33;;
25409;SDS011;13339;50.840;4.346;2022-07-06T09:54:30;8.87;;;3.20;;
25409;SDS011;13339;50.840;4.346;2022-07-06T09:57:02;11.73;;;3.43;;
25409;SDS011;13339;50.840;4.346;2022-07-06T09:59:29;11.10;;;3.30;;
25409;SDS011;13339;50.840;4.346;2022-07-06T10:01:57;8.60;;;3.50;;
25409;SDS011;13339;50.840;4.346;2022-07-06T10:04:25;11.00;;;3.57;;
25409;SDS011;13339;50.840;4.346;2022-07-06T10:06:51;11.40;;;2.90;;
25409;SDS011;13339;50.840;4.346;2022-07-06T10:09:18;4.93;;;3.23;;
25409;SDS011;13339;50.840;4.346;2022-07-06T10:11:48;6.57;;;3.63;;
25409;SDS011;13339;50.840;4.346;2022-07-06T10:14:17;6.40;;;3.30;;
25409;SDS011;13339;50.840;4.346;2022-07-06T10:16:45;7.13;;;3.40;;
25409;SDS011;13339;50.840;4.346;2022-07-06T10:19:12;7.43;;;3.17;;
25409;SDS011;13339;50.840;4.346;2022-07-06T10:21:39;8.43;;;3.70;;
25409;SDS011;13339;50.840;4.346;2022-07-06T10:24:05;13.27;;;3.90;;
25409;SDS011;13339;50.840;4.346;2022-07-06T10:26:33;8.77;;;3.20;;
25409;SDS011;13339;50.840;4.346;2022-07-06T10:29:00;8.77;;;3.33;;
25409;SDS011;13339;50.840;4.346;2022-07-06T10:31:27;7.43;;;3.57;;
25409;SDS011;13339;50.840;4.346;2022-07-06T10:33:55;8.73;;;5.13;;
25409;SDS011;13339;50.840;4.346;2022-07-06T10:36:23;11.43;;;3.87;;
25409;SDS011;13339;50.840;4.346;2022-07-06T10:38:50;9.37;;;3.83;;
25409;SDS011;13339;50.840;4.346;2022-07-06T10:41:17;6.43;;;4.07;;
25409;SDS011;13339;50.840;4.346;2022-07-06T10:43:47;13.70;;;3.60;;
25409;SDS011;13339;50.840;4.346;2022-07-06T10:46:16;13.93;;;3.50;;
25409;SDS011;13339;50.840;4.346;2022-07-06T10:48:44;8.63;;;3.63;;
25409;SDS011;13339;50.840;4.346;2022-07-06T10:51:12;9.87;;;3.60;;
25409;SDS011;13339;50.840;4.346;2022-07-06T10:53:49;8.77;;;3.27;;
25409;SDS011;13339;50.840;4.346;2022-07-06T10:56:38;12.10;;;3.87;;
25409;SDS011;13339;50.840;4.346;2022-07-06T10:59:17;7.43;;;3.20;;
25409;SDS011;13339;50.840;4.346;2022-07-06T11:04:45;10.60;;;4.50;;
25409;SDS011;13339;50.840;4.346;2022-07-06T11:07:13;7.33;;;3.03;;
25409;SDS011;13339;50.840;4.346;2022-07-06T11:09:40;8.13;;;2.83;;
25409;SDS011;13339;50.840;4.346;2022-07-06T11:12:16;9.97;;;3.67;;
25409;SDS011;13339;50.840;4.346;2022-07-06T11:14:46;8.37;;;2.60;;
25409;SDS011;13339;50.840;4.346;2022-07-06T11:17:13;12.60;;;3.20;;
25409;SDS011;13339;50.840;4.346;2022-07-06T11:19:47;5.90;;;2.30;;
25409;SDS011;13339;50.840;4.346;2022-07-06T11:22:33;8.88;;;2.70;;
25409;SDS011;13339;50.840;4.346;2022-07-06T11:25:01;4.63;;;2.13;;
25409;SDS011;13339;50.840;4.346;2022-07-06T11:27:28;7.82;;;2.03;;
25409;SDS011;13339;50.840;4.346;2022-07-06T11:29:54;6.30;;;2.07;;
25409;SDS011;13339;50.840;4.346;2022-07-06T11:32:27;8.87;;;2.67;;
25409;SDS011;13339;50.840;4.346;2022-07-06T11:34:53;5.70;;;2.50;;
25409;SDS011;13339;50.840;4.346;2022-07-06T11:37:19;3.97;;;2.40;;
25409;SDS011;13339;50.840;4.346;2022-07-06T11:39:46;15.80;;;3.53;;
25409;SDS011;13339;50.840;4.346;2022-07-06T11:42:13;9.23;;;2.93;;
25409;SDS011;13339;50.840;4.346;2022-07-06T11:44:40;3.37;;;2.30;;
25409;SDS011;13339;50.840;4.346;2022-07-06T11:47:07;6.63;;;2.75;;
25409;SDS011;13339;50.840;4.346;2022-07-06T11:49:34;14.73;;;2.37;;
25409;SDS011;13339;50.840;4.346;2022-07-06T11:52:08;7.83;;;2.67;;
25409;SDS011;13339;50.840;4.346;2022-07-06T11:54:35;7.68;;;2.60;;
25409;SDS011;13339;50.840;4.346;2022-07-06T11:57:01;13.52;;;2.47;;
25409;SDS011;13339;50.840;4.346;2022-07-06T11:59:32;8.07;;;2.45;;
25409;SDS011;13339;50.840;4.346;2022-07-06T12:04:44;5.28;;;2.55;;
25409;SDS011;13339;50.840;4.346;2022-07-06T12:07:11;8.93;;;2.67;;
25409;SDS011;13339;50.840;4.346;2022-07-06T12:09:40;5.30;;;2.35;;
25409;SDS011;13339;50.840;4.346;2022-07-06T12:12:07;8.00;;;2.90;;
25409;SDS011;13339;50.840;4.346;2022-07-06T12:14:35;10.32;;;3.03;;
25409;SDS011;13339;50.840;4.346;2022-07-06T12:17:06;8.57;;;2.30;;
25409;SDS011;13339;50.840;4.346;2022-07-06T12:19:32;5.55;;;2.92;;
25409;SDS011;13339;50.840;4.346;2022-07-06T12:21:58;7.45;;;3.10;;
25409;SDS011;13339;50.840;4.346;2022-07-06T12:24:27;5.88;;;2.50;;
25409;SDS011;13339;50.840;4.346;2022-07-06T12:26:55;6.05;;;2.72;;
25409;SDS011;13339;50.840;4.346;2022-07-06T12:29:22;9.02;;;2.72;;
25409;SDS011;13339;50.840;4.346;2022-07-06T12:31:54;10.90;;;3.05;;
25409;SDS011;13339;50.840;4.346;2022-07-06T12:34:22;4.38;;;2.50;;
25409;SDS011;13339;50.840;4.346;2022-07-06T12:36:56;4.30;;;2.15;;
25409;SDS011;13339;50.840;4.346;2022-07-06T12:39:23;10.63;;;2.75;;
25409;SDS011;13339;50.840;4.346;2022-07-06T12:41:51;8.90;;;3.50;;
25409;SDS011;13339;50.840;4.346;2022-07-06T12:44:18;8.90;;;2.97;;
25409;SDS011;13339;50.840;4.346;2022-07-06T12:46:49;8.95;;;2.50;;
25409;SDS011;13339;50.840;4.346;2022-07-06T12:49:35;7.40;;;2.55;;
25409;SDS011;13339;50.840;4.346;2022-07-06T12:52:08;8.82;;;2.72;;
25409;SDS011;13339;50.840;4.346;2022-07-06T12:59:34;6.47;;;3.00;;
25409;SDS011;13339;50.840;4.346;2022-07-06T13:02:06;6.55;;;2.88;;
25409;SDS011;13339;50.840;4.346;2022-07-06T13:04:34;10.45;;;2.88;;
25409;SDS011;13339;50.840;4.346;2022-07-06T13:07:02;8.40;;;3.45;;
25409;SDS011;13339;50.840;4.346;2022-07-06T13:09:28;5.72;;;2.45;;
25409;SDS011;13339;50.840;4.346;2022-07-06T13:11:55;10.73;;;3.47;;
25409;SDS011;13339;50.840;4.346;2022-07-06T13:14:21;6.35;;;3.80;;
25409;SDS011;13339;50.840;4.346;2022-07-06T13:16:47;6.83;;;3.57;;
25409;SDS011;13339;50.840;4.346;2022-07-06T13:19:13;4.13;;;3.10;;
25409;SDS011;13339;50.840;4.346;2022-07-06T13:21:40;6.57;;;2.80;;
25409;SDS011;13339;50.840;4.346;2022-07-06T13:24:06;5.33;;;2.97;;
25409;SDS011;13339;50.840;4.346;2022-07-06T13:26:32;5.73;;;2.67;;
25409;SDS011;13339;50.840;4.346;2022-07-06T13:29:07;4.50;;;2.70;;
25409;SDS011;13339;50.840;4.346;2022-07-06T13:31:35;5.10;;;2.90;;
25409;SDS011;13339;50.840;4.346;2022-07-06T13:34:02;10.23;;;2.37;;
25409;SDS011;13339;50.840;4.346;2022-07-06T13:36:27;6.90;;;2.57;;
25409;SDS011;13339;50.840;4.346;2022-07-06T13:38:53;8.98;;;2.78;;
25409;SDS011;13339;50.840;4.346;2022-07-06T13:41:19;7.38;;;2.58;;
25409;SDS011;13339;50.840;4.346;2022-07-06T13:43:44;9.40;;;2.50;;
25409;SDS011;13339;50.840;4.346;2022-07-06T13:46:10;5.65;;;2.40;;
25409;SDS011;13339;50.840;4.346;2022-07-06T13:48:36;5.85;;;2.65;;
25409;SDS011;13339;50.840;4.346;2022-07-06T13:51:02;4.80;;;2.58;;
25409;SDS011;13339;50.840;4.346;2022-07-06T13:53:27;4.55;;;2.40;;
25409;SDS011;13339;50.840;4.346;2022-07-06T13:55:53;6.75;;;2.75;;
25409;SDS011;13339;50.840;4.346;2022-07-06T13:58:19;3.70;;;2.40;;
25409;SDS011;13339;50.840;4.346;2022-07-06T14:00:45;5.30;;;2.60;;
25409;SDS011;13339;50.840;4.346;2022-07-06T14:03:11;8.32;;;2.80;;
25409;SDS011;13339;50.840;4.346;2022-07-06T14:05:37;5.53;;;2.80;;
25409;SDS011;13339;50.840;4.346;2022-07-06T14:08:03;6.22;;;2.28;;
25409;SDS011;13339;50.840;4.346;2022-07-06T14:10:28;4.55;;;2.70;;
25409;SDS011;13339;50.840;4.346;2022-07-06T14:12:54;7.70;;;3.08;;
25409;SDS011;13339;50.840;4.346;2022-07-06T14:15:20;8.68;;;3.20;;
25409;SDS011;13339;50.840;4.346;2022-07-06T14:17:46;5.90;;;2.65;;
25409;SDS011;13339;50.840;4.346;2022-07-06T14:20:14;8.38;;;2.40;;
25409;SDS011;13339;50.840;4.346;2022-07-06T14:22:41;7.72;;;2.60;;
25409;SDS011;13339;50.840;4.346;2022-07-06T14:25:06;9.32;;;2.40;;
25409;SDS011;13339;50.840;4.346;2022-07-06T14:27:33;10.32;;;2.90;;
25409;SDS011;13339;50.840;4.346;2022-07-06T14:29:59;7.97;;;2.17;;
25409;SDS011;13339;50.840;4.346;2022-07-06T14:32:25;6.35;;;2.47;;
25409;SDS011;13339;50.840;4.346;2022-07-06T14:34:50;8.40;;;2.35;;
25409;SDS011;13339;50.840;4.346;2022-07-06T14:37:16;5.25;;;2.70;;
25409;SDS011;13339;50.840;4.346;2022-07-06T14:39:42;7.80;;;2.67;;
25409;SDS011;13339;50.840;4.346;2022-07-06T14:42:10;7.22;;;2.70;;
25409;SDS011;13339;50.840;4.346;2022-07-06T14:44:36;9.30;;;3.33;;
25409;SDS011;13339;50.840;4.346;2022-07-06T14:47:01;7.80;;;2.50;;
25409;SDS011;13339;50.840;4.346;2022-07-06T14:49:28;5.35;;;2.60;;